createdAt,value
2018-09-25T00:01:34.129Z,8.63
2018-09-25T00:04:08.412Z,8.27
2018-09-25T00:06:42.614Z,7.23
2018-09-25T00:09:17.118Z,7.57
2018-09-25T00:11:51.324Z,6.00
2018-09-25T00:14:25.670Z,7.33
2018-09-25T00:16:59.918Z,8.10
2018-09-25T00:19:34.094Z,8.33
2018-09-25T00:22:08.440Z,6.47
2018-09-25T00:24:42.674Z,8.40
2018-09-25T00:27:16.766Z,6.97
2018-09-25T00:29:50.954Z,5.30
2018-09-25T00:32:25.038Z,4.97
2018-09-25T00:34:59.587Z,9.43
2018-09-25T00:37:33.670Z,6.47
2018-09-25T00:40:07.942Z,7.97
2018-09-25T00:42:42.133Z,5.77
2018-09-25T00:45:16.555Z,7.90
2018-09-25T00:47:51.206Z,9.50
2018-09-25T00:50:25.553Z,6.27
2018-09-25T00:52:59.794Z,6.83
2018-09-25T00:55:34.099Z,6.70
2018-09-25T00:58:08.275Z,5.67
2018-09-25T01:00:42.463Z,5.60
2018-09-25T01:03:16.778Z,9.10
2018-09-25T01:05:51.045Z,6.93
2018-09-25T01:08:25.344Z,9.03
2018-09-25T01:10:59.717Z,7.67
2018-09-25T01:13:33.946Z,5.10
2018-09-25T01:16:08.250Z,6.70
2018-09-25T01:18:42.622Z,8.53
2018-09-25T01:21:16.985Z,7.03
2018-09-25T01:23:51.355Z,7.13
2018-09-25T01:26:25.515Z,6.13
2018-09-25T01:28:59.861Z,5.73
2018-09-25T01:31:34.091Z,7.00
2018-09-25T01:34:08.519Z,8.00
2018-09-25T01:36:42.822Z,4.90
2018-09-25T01:39:17.095Z,5.83
2018-09-25T01:41:51.326Z,5.30
2018-09-25T01:44:25.631Z,5.83
2018-09-25T01:46:59.933Z,6.57
2018-09-25T01:49:34.173Z,4.37
2018-09-25T01:52:08.403Z,6.10
2018-09-25T01:54:42.574Z,7.43
2018-09-25T01:57:16.570Z,5.67
2018-09-25T01:59:50.966Z,6.50
2018-09-25T02:02:25.287Z,6.17
2018-09-25T02:04:59.566Z,8.23
2018-09-25T02:07:33.731Z,5.60
2018-09-25T02:10:07.826Z,6.53
2018-09-25T02:12:42.092Z,5.67
2018-09-25T02:15:16.163Z,5.47
2018-09-25T02:17:50.541Z,6.63
2018-09-25T02:20:24.709Z,7.07
2018-09-25T02:22:58.906Z,8.30
2018-09-25T02:25:33.251Z,6.00
2018-09-25T02:28:07.659Z,5.93
2018-09-25T02:30:41.776Z,3.70
2018-09-25T02:33:15.811Z,5.47
2018-09-25T02:35:49.912Z,6.60
2018-09-25T02:38:23.990Z,6.60
2018-09-25T02:40:58.315Z,7.33
2018-09-25T02:43:32.526Z,4.87
2018-09-25T02:46:06.801Z,6.10
2018-09-25T02:48:40.822Z,8.80
2018-09-25T02:51:15.246Z,6.60
2018-09-25T02:53:49.530Z,5.30
2018-09-25T02:56:23.830Z,5.90
2018-09-25T02:58:58.037Z,6.03
2018-09-25T03:01:32.281Z,10.03
2018-09-25T03:04:06.654Z,7.77
2018-09-25T03:06:40.763Z,5.40
2018-09-25T03:09:15.051Z,5.40
2018-09-25T03:11:49.504Z,8.73
2018-09-25T03:14:23.715Z,6.37
2018-09-25T03:16:58.104Z,6.27
2018-09-25T03:19:33.042Z,11.10
2018-09-25T03:22:07.181Z,8.83
2018-09-25T03:24:41.253Z,8.47
2018-09-25T03:27:15.290Z,7.13
2018-09-25T03:29:49.666Z,8.77
2018-09-25T03:32:23.922Z,7.57
2018-09-25T03:34:58.284Z,5.33
2018-09-25T03:37:32.502Z,5.33
2018-09-25T03:40:06.862Z,9.47
2018-09-25T03:42:41.037Z,7.53
2018-09-25T03:45:15.190Z,4.60
2018-09-25T03:47:49.395Z,7.20
2018-09-25T03:50:23.574Z,8.17
2018-09-25T03:52:57.943Z,7.53
2018-09-25T03:55:32.288Z,7.53
2018-09-25T03:58:06.484Z,5.83
2018-09-25T04:00:40.733Z,8.10
2018-09-25T04:03:15.001Z,7.73
2018-09-25T04:05:49.307Z,7.97
2018-09-25T04:08:23.625Z,8.97
2018-09-25T04:10:58.048Z,10.97
2018-09-25T04:13:32.467Z,9.47
2018-09-25T04:16:06.874Z,10.63
2018-09-25T04:18:41.066Z,9.13
2018-09-25T04:21:15.514Z,10.87
2018-09-25T04:23:49.948Z,9.23
2018-09-25T04:26:24.222Z,10.37
2018-09-25T04:28:58.481Z,11.00
2018-09-25T04:31:32.765Z,9.67
2018-09-25T04:34:06.984Z,8.87
2018-09-25T04:36:41.366Z,7.50
2018-09-25T04:39:15.686Z,8.53
2018-09-25T04:41:49.844Z,9.40
2018-09-25T04:44:24.188Z,8.63
2018-09-25T04:46:58.429Z,10.37
2018-09-25T04:49:32.650Z,8.93
2018-09-25T04:52:06.885Z,8.07
2018-09-25T04:56:05.606Z,8.50
2018-09-25T04:58:39.870Z,10.77
2018-09-25T05:01:14.187Z,7.73
2018-09-25T05:03:48.575Z,9.13
2018-09-25T05:06:22.758Z,8.70
2018-09-25T05:08:56.982Z,7.77
2018-09-25T05:11:31.390Z,9.67
2018-09-25T05:14:05.734Z,8.03
2018-09-25T05:16:39.979Z,7.80
2018-09-25T05:19:14.264Z,6.93
2018-09-25T05:21:48.507Z,8.20
2018-09-25T05:24:22.722Z,6.90
2018-09-25T05:26:57.102Z,8.70
2018-09-25T05:29:31.179Z,9.97
2018-09-25T05:32:05.614Z,8.83
2018-09-25T05:34:39.781Z,11.67
2018-09-25T05:37:14.167Z,10.50
2018-09-25T05:39:48.266Z,9.30
2018-09-25T05:42:22.622Z,10.47
2018-09-25T05:44:57.098Z,9.40
2018-09-25T05:47:31.382Z,11.00
2018-09-25T05:50:05.755Z,10.47
2018-09-25T05:52:40.014Z,11.30
2018-09-25T05:55:14.296Z,11.70
2018-09-25T05:57:48.647Z,11.17
2018-09-25T06:00:22.888Z,12.63
2018-09-25T06:02:57.247Z,9.70
2018-09-25T06:05:31.487Z,13.63
2018-09-25T06:08:05.858Z,11.87
2018-09-25T06:10:40.251Z,14.13
2018-09-25T06:13:14.598Z,11.20
2018-09-25T06:15:49.045Z,14.40
2018-09-25T06:18:23.499Z,11.97
2018-09-25T06:20:57.886Z,17.97
2018-09-25T06:23:32.165Z,13.03
2018-09-25T06:26:06.454Z,15.63
2018-09-25T06:28:40.686Z,12.10
2018-09-25T06:31:15.051Z,12.53
2018-09-25T06:33:49.434Z,11.23
2018-09-25T06:36:23.678Z,15.30
2018-09-25T06:38:58.030Z,14.13
2018-09-25T06:41:32.258Z,13.93
2018-09-25T06:44:06.657Z,11.13
2018-09-25T06:46:40.788Z,15.77
2018-09-25T06:49:15.150Z,14.73
2018-09-25T06:51:49.446Z,14.60
2018-09-25T06:54:23.722Z,14.77
2018-09-25T06:56:57.851Z,12.93
2018-09-25T06:59:32.229Z,13.23
2018-09-25T07:02:06.478Z,15.73
2018-09-25T07:04:40.693Z,15.27
2018-09-25T07:07:15.005Z,12.93
2018-09-25T07:09:49.333Z,17.60
2018-09-25T07:12:23.599Z,16.00
2018-09-25T07:14:57.858Z,19.07
2018-09-25T07:17:32.313Z,15.17
2018-09-25T07:20:06.406Z,13.60
2018-09-25T07:22:40.631Z,18.73
2018-09-25T07:25:14.859Z,22.40
2018-09-25T07:27:49.054Z,16.23
2018-09-25T07:30:23.277Z,15.10
2018-09-25T07:32:57.416Z,13.97
2018-09-25T07:35:31.799Z,14.87
2018-09-25T07:38:06.070Z,19.67
2018-09-25T07:40:40.506Z,16.00
2018-09-25T07:43:14.802Z,15.90
2018-09-25T07:45:49.234Z,15.00
2018-09-25T07:48:23.674Z,17.13
2018-09-25T07:50:57.918Z,13.73
2018-09-25T07:53:32.162Z,18.37
2018-09-25T07:56:06.574Z,19.43
2018-09-25T07:58:40.947Z,19.00
2018-09-25T08:01:15.201Z,18.97
2018-09-25T08:03:49.598Z,16.93
2018-09-25T08:06:23.965Z,17.03
2018-09-25T08:08:58.293Z,15.53
2018-09-25T08:11:32.539Z,16.83
2018-09-25T08:14:06.938Z,17.23
2018-09-25T08:16:41.227Z,17.20
2018-09-25T08:19:15.468Z,19.03
2018-09-25T08:21:49.598Z,15.50
2018-09-25T08:24:23.824Z,16.43
2018-09-25T08:26:58.206Z,14.47
2018-09-25T08:29:32.552Z,18.93
2018-09-25T08:32:06.694Z,20.73
2018-09-25T08:34:40.982Z,16.07
2018-09-25T08:37:15.318Z,17.47
2018-09-25T08:39:49.701Z,22.43
2018-09-25T08:42:23.879Z,28.13
2018-09-25T08:44:58.169Z,13.77
2018-09-25T08:47:32.426Z,18.60
2018-09-25T08:50:06.603Z,18.83
2018-09-25T08:52:40.653Z,18.23
2018-09-25T08:55:15.054Z,13.00
2018-09-25T08:57:49.268Z,17.97
2018-09-25T09:00:23.533Z,17.33
2018-09-25T09:02:57.970Z,20.73
2018-09-25T09:05:32.256Z,20.20
2018-09-25T09:08:06.454Z,16.37
2018-09-25T09:10:40.725Z,19.13
2018-09-25T09:13:15.086Z,17.07
2018-09-25T09:15:49.486Z,16.03
2018-09-25T09:18:23.847Z,13.87
2018-09-25T09:20:58.239Z,10.00
2018-09-25T09:23:32.597Z,14.90
2018-09-25T09:26:06.914Z,11.40
2018-09-25T09:28:41.207Z,13.30
2018-09-25T09:31:15.473Z,11.80
2018-09-25T09:33:49.754Z,13.70
2018-09-25T09:36:24.050Z,17.83
2018-09-25T09:38:58.243Z,13.57
2018-09-25T09:41:32.782Z,12.50
2018-09-25T09:44:06.821Z,12.40
2018-09-25T09:46:41.324Z,10.40
2018-09-25T09:49:15.574Z,12.13
2018-09-25T09:51:49.818Z,12.43
2018-09-25T09:54:24.658Z,15.53
2018-09-25T09:56:59.050Z,18.90
2018-09-25T09:59:33.277Z,20.33
2018-09-25T10:02:07.414Z,16.00
2018-09-25T10:04:41.650Z,17.00
2018-09-25T10:07:15.788Z,20.00
2018-09-25T10:09:50.150Z,19.17
2018-09-25T10:12:24.381Z,22.63
2018-09-25T10:14:58.578Z,23.17
2018-09-25T10:17:32.909Z,21.07
2018-09-25T10:20:07.166Z,19.97
2018-09-25T10:22:41.478Z,16.80
2018-09-25T10:25:15.862Z,18.53
2018-09-25T10:27:50.134Z,20.60
2018-09-25T10:30:24.247Z,16.87
2018-09-25T10:32:58.392Z,21.90
2018-09-25T10:35:32.747Z,18.53
2018-09-25T10:38:07.027Z,16.47
2018-09-25T10:40:41.206Z,15.73
2018-09-25T10:43:15.574Z,14.97
2018-09-25T10:45:49.682Z,15.73
2018-09-25T10:48:23.983Z,14.60
2018-09-25T10:50:58.118Z,14.77
2018-09-25T10:53:32.294Z,19.53
2018-09-25T10:56:06.524Z,16.80
2018-09-25T10:58:40.498Z,14.87
2018-09-25T11:01:14.658Z,13.60
2018-09-25T11:03:48.804Z,17.23
2018-09-25T11:06:23.514Z,16.60
2018-09-25T11:08:57.682Z,22.50
2018-09-25T11:11:31.890Z,16.80
2018-09-25T11:14:06.267Z,20.30
2018-09-25T11:16:40.674Z,15.17
2018-09-25T11:19:14.742Z,16.60
2018-09-25T11:21:48.982Z,10.10
2018-09-25T11:24:23.212Z,12.67
2018-09-25T11:26:57.334Z,16.37
2018-09-25T11:29:31.591Z,15.87
2018-09-25T11:32:05.762Z,13.73
2018-09-25T11:34:40.663Z,15.93
2018-09-25T11:37:14.951Z,13.93
2018-09-25T11:39:49.090Z,14.30
2018-09-25T11:42:23.255Z,12.83
2018-09-25T11:44:57.422Z,14.93
2018-09-25T11:47:31.643Z,12.33
2018-09-25T11:50:05.831Z,11.93
2018-09-25T11:52:40.067Z,18.50
2018-09-25T11:55:14.287Z,12.33
2018-09-25T11:57:48.594Z,20.73
2018-09-25T12:00:22.842Z,21.43
2018-09-25T12:02:57.227Z,15.90
2018-09-25T12:05:31.298Z,19.63
2018-09-25T12:08:05.410Z,15.47
2018-09-25T12:10:39.630Z,15.90
2018-09-25T12:13:13.889Z,16.40
2018-09-25T12:15:48.011Z,15.40
2018-09-25T12:18:22.118Z,15.63
2018-09-25T12:20:56.267Z,20.40
2018-09-25T12:23:30.612Z,14.80
2018-09-25T12:26:04.850Z,15.23
2018-09-25T12:28:46.207Z,16.90
2018-09-25T12:31:20.342Z,15.97
2018-09-25T12:33:54.694Z,13.37
2018-09-25T12:36:28.658Z,16.20
2018-09-25T12:39:03.619Z,9.90
2018-09-25T12:41:38.014Z,13.20
2018-09-25T12:44:12.494Z,11.67
2018-09-25T12:46:46.770Z,15.07
2018-09-25T12:49:21.073Z,17.17
2018-09-25T12:51:55.422Z,18.73
2018-09-25T12:54:30.106Z,20.87
2018-09-25T12:57:04.457Z,18.67
2018-09-25T12:59:38.718Z,17.63
2018-09-25T13:02:13.515Z,18.00
2018-09-25T13:04:47.766Z,15.67
2018-09-25T13:07:22.142Z,21.17
2018-09-25T13:09:56.531Z,14.47
2018-09-25T13:12:30.801Z,18.33
2018-09-25T13:15:04.862Z,15.53
2018-09-25T13:17:39.058Z,11.87
2018-09-25T13:20:13.250Z,12.33
2018-09-25T13:22:47.542Z,14.43
2018-09-25T13:25:21.798Z,13.20
2018-09-25T13:27:55.966Z,13.57
2018-09-25T13:30:30.194Z,13.37
2018-09-25T13:33:04.522Z,13.60
2018-09-25T13:35:38.605Z,9.20
2018-09-25T13:38:12.778Z,9.57
2018-09-25T13:40:46.957Z,9.43
2018-09-25T13:43:21.335Z,6.90
2018-09-25T13:45:56.171Z,7.30
2018-09-25T13:48:30.415Z,6.77
2018-09-25T13:51:04.751Z,5.43
2018-09-25T13:53:38.941Z,6.83
2018-09-25T13:56:13.333Z,9.47
2018-09-25T13:58:47.659Z,6.50
2018-09-25T14:01:21.883Z,4.37
2018-09-25T14:03:56.182Z,5.37
2018-09-25T14:06:30.250Z,7.73
2018-09-25T14:09:04.318Z,9.60
2018-09-25T14:11:38.558Z,7.90
2018-09-25T14:14:12.734Z,5.03
2018-09-25T14:16:46.942Z,9.57
2018-09-25T14:19:21.035Z,4.87
2018-09-25T14:21:55.281Z,5.43
2018-09-25T14:24:29.677Z,6.73
2018-09-25T14:27:03.838Z,7.23
2018-09-25T14:29:38.039Z,5.93
2018-09-25T14:32:12.450Z,4.33
2018-09-25T14:34:46.659Z,6.73
2018-09-25T14:37:20.921Z,5.23
2018-09-25T14:39:55.162Z,6.47
2018-09-25T14:42:29.366Z,6.00
2018-09-25T14:45:03.715Z,8.60
2018-09-25T14:47:37.980Z,4.53
2018-09-25T14:50:12.155Z,5.03
2018-09-25T14:52:46.342Z,5.43
2018-09-25T14:55:20.467Z,6.40
2018-09-25T14:57:54.673Z,6.20
2018-09-25T15:00:29.026Z,4.70
2018-09-25T15:03:03.089Z,7.50
2018-09-25T15:05:37.392Z,6.17
2018-09-25T15:08:11.637Z,7.43
2018-09-25T15:10:46.118Z,5.80
2018-09-25T15:13:20.414Z,6.63
2018-09-25T15:15:54.702Z,5.03
2018-09-25T15:18:28.781Z,5.40
2018-09-25T15:21:03.091Z,5.50
2018-09-25T15:23:37.297Z,4.30
2018-09-25T15:26:11.596Z,5.60
2018-09-25T15:28:45.903Z,4.57
2018-09-25T15:31:20.158Z,5.87
2018-09-25T15:33:54.617Z,4.70
2018-09-25T15:36:28.874Z,7.73
2018-09-25T15:39:03.007Z,4.47
2018-09-25T15:41:37.475Z,3.83
2018-09-25T15:44:11.723Z,4.47
2018-09-25T15:46:46.094Z,9.40
2018-09-25T15:49:20.557Z,6.13
2018-09-25T15:51:54.702Z,4.87
2018-09-25T15:54:29.022Z,4.77
2018-09-25T15:57:03.160Z,4.27
2018-09-25T15:59:37.514Z,4.00
2018-09-25T16:02:11.931Z,8.00
2018-09-25T16:04:46.082Z,5.97
2018-09-25T16:07:20.550Z,3.53
2018-09-25T16:09:54.571Z,6.63
2018-09-25T16:12:29.005Z,2.97
2018-09-25T16:15:03.358Z,5.13
2018-09-25T16:17:37.667Z,5.67
2018-09-25T16:20:11.954Z,5.73
2018-09-25T16:22:46.173Z,5.57
2018-09-25T16:25:20.376Z,4.43
2018-09-25T16:27:54.603Z,6.87
2018-09-25T16:30:28.826Z,4.00
2018-09-25T16:33:03.072Z,5.47
2018-09-25T16:35:37.483Z,6.87
2018-09-25T16:38:11.621Z,8.07
2018-09-25T16:40:45.933Z,4.53
2018-09-25T16:43:20.334Z,5.10
2018-09-25T16:45:54.611Z,4.13
2018-09-25T16:48:28.747Z,3.47
2018-09-25T16:51:03.047Z,5.20
2018-09-25T16:53:37.259Z,4.63
2018-09-25T16:56:11.650Z,3.23
2018-09-25T16:58:45.921Z,3.00
2018-09-25T17:01:20.238Z,8.17
2018-09-25T17:03:54.434Z,4.20
2018-09-25T17:06:28.626Z,5.13
2018-09-25T17:09:02.738Z,7.37
2018-09-25T17:11:36.814Z,4.57
2018-09-25T17:14:11.180Z,5.33
2018-09-25T17:16:45.379Z,4.43
2018-09-25T17:19:19.563Z,3.13
2018-09-25T17:21:53.833Z,4.20
2018-09-25T17:24:28.105Z,4.23
2018-09-25T17:27:02.298Z,4.43
2018-09-25T17:29:36.682Z,5.60
2018-09-25T17:32:10.958Z,5.23
2018-09-25T17:34:45.335Z,6.40
2018-09-25T17:37:19.542Z,4.97
2018-09-25T17:39:53.936Z,6.70
2018-09-25T17:42:28.105Z,4.27
2018-09-25T17:45:02.435Z,4.73
2018-09-25T17:47:36.644Z,5.27
2018-09-25T17:50:11.277Z,7.67
2018-09-25T17:52:45.350Z,8.57
2018-09-25T17:55:19.574Z,5.93
2018-09-25T17:57:53.838Z,7.27
2018-09-25T18:00:27.976Z,7.47
2018-09-25T18:03:02.322Z,8.23
2018-09-25T18:05:36.714Z,5.73
2018-09-25T18:08:11.326Z,8.30
2018-09-25T18:10:45.551Z,7.67
2018-09-25T18:13:19.794Z,7.80
2018-09-25T18:15:53.978Z,6.17
2018-09-25T18:18:28.134Z,6.37
2018-09-25T18:21:02.495Z,5.77
2018-09-25T18:23:36.710Z,7.67
2018-09-25T18:26:11.211Z,5.83
2018-09-25T18:28:45.427Z,6.77
2018-09-25T18:31:19.694Z,9.03
2018-09-25T18:33:53.789Z,10.43
2018-09-25T18:36:27.902Z,7.00
2018-09-25T18:39:02.179Z,8.17
2018-09-25T18:41:36.431Z,8.90
2018-09-25T18:44:10.649Z,9.80
2018-09-25T18:46:44.674Z,5.93
2018-09-25T18:49:18.924Z,6.30
2018-09-25T18:51:53.087Z,10.77
2018-09-25T18:54:27.485Z,13.27
2018-09-25T18:57:01.898Z,16.83
2018-09-25T18:59:36.216Z,17.17
2018-09-25T19:02:10.430Z,20.87
2018-09-25T19:04:44.504Z,17.27
2018-09-25T19:07:18.640Z,15.67
2018-09-25T19:09:52.962Z,12.50
2018-09-25T19:12:27.427Z,9.47
2018-09-25T19:15:01.627Z,8.10
2018-09-25T19:17:35.762Z,8.97
2018-09-25T19:20:09.926Z,7.13
2018-09-25T19:22:44.468Z,9.50
2018-09-25T19:25:18.846Z,9.37
2018-09-25T19:27:53.210Z,8.73
2018-09-25T19:30:27.430Z,7.17
2018-09-25T19:33:01.843Z,7.93
2018-09-25T19:35:36.143Z,12.47
2018-09-25T19:38:10.526Z,5.63
2018-09-25T19:40:44.798Z,8.87
2018-09-25T19:43:19.214Z,7.13
2018-09-25T19:45:53.438Z,7.07
2018-09-25T19:48:28.077Z,7.23
2018-09-25T19:51:02.446Z,9.80
2018-09-25T19:53:36.662Z,6.87
2018-09-25T19:56:11.086Z,4.67
2018-09-25T19:58:45.219Z,7.63
2018-09-25T20:01:19.434Z,6.20
2018-09-25T20:03:53.778Z,6.00
2018-09-25T20:06:28.027Z,6.23
2018-09-25T20:09:02.261Z,6.33
2018-09-25T20:11:36.520Z,5.37
2018-09-25T20:14:10.907Z,7.17
2018-09-25T20:16:45.250Z,7.03
2018-09-25T20:19:19.592Z,4.60
2018-09-25T20:21:54.363Z,6.10
2018-09-25T20:24:28.730Z,5.87
2018-09-25T20:27:02.877Z,6.67
2018-09-25T20:29:37.110Z,6.23
2018-09-25T20:32:11.486Z,7.27
2018-09-25T20:34:45.775Z,6.33
2018-09-25T20:37:20.234Z,6.07
2018-09-25T20:39:54.631Z,6.77
2018-09-25T20:42:28.959Z,6.87
2018-09-25T20:45:03.295Z,6.97
2018-09-25T20:47:37.562Z,8.10
2018-09-25T20:50:11.851Z,9.27
2018-09-25T20:52:46.254Z,5.73
2018-09-25T20:55:20.628Z,7.50
2018-09-25T20:57:54.714Z,7.17
2018-09-25T21:00:28.969Z,8.83
2018-09-25T21:03:03.402Z,8.43
2018-09-25T21:05:37.611Z,9.17
2018-09-25T21:08:12.040Z,11.77
2018-09-25T21:10:46.247Z,10.77
2018-09-25T21:13:20.347Z,8.33
2018-09-25T21:15:54.653Z,4.77
2018-09-25T21:18:29.006Z,8.77
2018-09-25T21:21:03.238Z,6.73
2018-09-25T21:23:37.714Z,7.57
2018-09-25T21:26:11.833Z,6.23
2018-09-25T21:28:45.978Z,5.33
2018-09-25T21:31:20.165Z,5.47
2018-09-25T21:33:54.537Z,4.23
2018-09-25T21:36:28.898Z,6.77
2018-09-25T21:39:03.819Z,5.53
2018-09-25T21:41:37.851Z,6.93
2018-09-25T21:44:12.113Z,11.27
2018-09-25T21:46:46.373Z,5.67
2018-09-25T21:49:20.713Z,6.50
2018-09-25T21:51:54.917Z,6.83
2018-09-25T21:54:29.179Z,5.33
2018-09-25T21:57:03.568Z,5.33
2018-09-25T21:59:37.768Z,6.63
2018-09-25T22:02:12.058Z,6.83
2018-09-25T22:04:46.450Z,6.60
2018-09-25T22:07:20.625Z,4.83
2018-09-25T22:09:55.040Z,5.37
2018-09-25T22:12:29.298Z,6.33
2018-09-25T22:15:03.454Z,6.17
2018-09-25T22:17:37.734Z,5.33
2018-09-25T22:20:12.335Z,7.83
2018-09-25T22:22:46.442Z,5.17
2018-09-25T22:25:20.728Z,8.67
2018-09-25T22:27:54.813Z,6.73
2018-09-25T22:30:28.897Z,9.70
2018-09-25T22:33:03.186Z,10.80
2018-09-25T22:35:37.461Z,7.20
2018-09-25T22:38:11.801Z,5.40
2018-09-25T22:40:46.002Z,5.77
2018-09-25T22:43:20.093Z,7.07
2018-09-25T22:45:54.305Z,7.27
2018-09-25T22:48:28.490Z,7.33
2018-09-25T22:51:02.826Z,7.10
2018-09-25T22:53:37.030Z,6.47
2018-09-25T22:56:11.377Z,8.30
2018-09-25T22:58:45.566Z,4.60
2018-09-25T23:01:19.855Z,6.80
2018-09-25T23:03:54.206Z,4.90
2018-09-25T23:06:28.473Z,7.67
2018-09-25T23:09:02.892Z,5.43
2018-09-25T23:11:37.210Z,4.47
2018-09-25T23:14:11.573Z,7.47
2018-09-25T23:16:45.901Z,6.33
2018-09-25T23:19:19.991Z,8.17
2018-09-25T23:21:54.410Z,6.83
2018-09-25T23:24:28.622Z,5.07
2018-09-25T23:27:02.847Z,6.63
2018-09-25T23:29:37.030Z,6.13
2018-09-25T23:32:11.582Z,5.20
2018-09-25T23:34:45.847Z,4.23
2018-09-25T23:37:20.759Z,8.40
2018-09-25T23:39:54.661Z,6.20
2018-09-25T23:42:30.023Z,6.50
2018-09-25T23:45:04.961Z,4.33
2018-09-25T23:47:43.034Z,7.27
2018-09-25T23:50:19.175Z,7.00
2018-09-25T23:52:54.197Z,4.63
2018-09-25T23:55:27.809Z,3.93
2018-09-25T23:58:01.274Z,5.33
